Welcome to Northern Hawkes Bay. New Zealand.
PWS Header
      nz Flag



Hit Counter


W3C Valid W3C Valid logo


    Wairoa

Select any of the Stations below to visit their websites.










Historic Data from Weather Underground
Select the location of interest below. Wairoa is the default. Please have patience, this Data is slow to load in.
Northern Hawkes Bay Historical Data
Daily Summary for November 28, 2017 Units:  Metric    English   Both
« Previous Day
Next Day »
Daily Weekly Monthly Yearly Custom
  High: Low: Average:
Temperature: 24.8 °C 14.3 °C 18.6 °C
Dew Point: 17.8 °C 14.2 °C 15.8 °C
Humidity: 99% 54% 85%
Wind Speed: 13.4km/h 0.0km/h 3.5km/h
Wind Gust: 19.5km/h - -
Wind- - WSW
Pressure: 1028.0 hPa 1024.3 hPa -
Precipitation: 0.0 mm    
Historical Graphs
 
 
Tabular Data for November 28, 2017
Time Temperature Dew Point Pressure Wind Wind Speed Wind Gust Humidity Rainfall Rate (Hourly) solar
00:01 16.6 °C 16.3 °C 1027.0 hPa NNW 1.1 km/h 3.5 km/h 98% 0.0 mm 0 W/m2
00:06 16.5 °C 16.2 °C 1027.0 hPa Calm   3.5 km/h 98% 0.0 mm 0 W/m2
00:10 16.6 °C 16.3 °C 1027.0 hPa NNW 1.1 km/h 3.5 km/h 98% 0.0 mm 0 W/m2
00:15 16.6 °C 16.3 °C 1027.0 hPa NW 1.1 km/h 5.0 km/h 98% 0.0 mm 0 W/m2
00:16 16.6 °C 16.3 °C 1027.0 hPa NNW 2.6 km/h 5.0 km/h 98% 0.0 mm 0 W/m2
00:21 16.4 °C 16.1 °C 1027.0 hPa NNW 1.1 km/h 5.0 km/h 98% 0.0 mm 0 W/m2
00:26 16.5 °C 16.2 °C 1027.0 hPa NNW 1.1 km/h 5.0 km/h 98% 0.0 mm 0 W/m2
00:32 16.5 °C 16.2 °C 1027.0 hPa NNW 1.1 km/h 5.0 km/h 98% 0.0 mm 0 W/m2
00:36 16.4 °C 16.1 °C 1027.0 hPa NW 1.1 km/h 6.1 km/h 98% 0.0 mm 0 W/m2
00:41 16.7 °C 16.4 °C 1027.0 hPa NW 2.6 km/h 6.1 km/h 98% 0.0 mm 0 W/m2
00:47 16.3 °C 16.0 °C 1027.0 hPa NW 2.6 km/h 5.0 km/h 98% 0.0 mm 0 W/m2
00:51 16.2 °C 15.9 °C 1027.0 hPa Calm   5.0 km/h 98% 0.0 mm 0 W/m2
00:57 16.1 °C 15.8 °C 1027.0 hPa NW 1.1 km/h 3.5 km/h 98% 0.0 mm 0 W/m2
01:02 15.9 °C 15.8 °C 1027.0 hPa NW 2.6 km/h 3.5 km/h 99% 0.0 mm 0 W/m2
01:06 16.0 °C 15.7 °C 1027.0 hPa NW 1.1 km/h 3.5 km/h 98% 0.0 mm 0 W/m2
01:08 16.0 °C 15.7 °C 1027.0 hPa Calm   3.5 km/h 98% 0.0 mm 0 W/m2
01:13 16.0 °C 15.7 °C 1027.0 hPa Calm   2.6 km/h 98% 0.0 mm 0 W/m2
01:18 15.9 °C 15.8 °C 1027.0 hPa Calm   2.6 km/h 99% 0.0 mm 0 W/m2
01:23 15.9 °C 15.8 °C 1027.0 hPa NNW 1.1 km/h 3.5 km/h 99% 0.0 mm 0 W/m2
01:28 15.8 °C 15.7 °C 1027.0 hPa NNW 1.1 km/h 3.5 km/h 99% 0.0 mm 0 W/m2
01:33 15.8 °C 15.7 °C 1026.6 hPa NNW 1.1 km/h 3.5 km/h 99% 0.0 mm 0 W/m2
01:39 15.8 °C 15.7 °C 1027.0 hPa Calm   3.5 km/h 99% 0.0 mm 0 W/m2
01:43 15.7 °C 15.6 °C 1026.6 hPa Calm   3.5 km/h 99% 0.0 mm 0 W/m2
01:49 15.7 °C 15.6 °C 1027.0 hPa Calm   2.6 km/h 99% 0.0 mm 0 W/m2
01:54 15.9 °C 15.8 °C 1026.6 hPa Calm   1.1 km/h 99% 0.0 mm 0 W/m2
01:58 15.6 °C 15.4 °C 1027.0 hPa Calm   2.6 km/h 99% 0.0 mm 0 W/m2
02:04 15.5 °C 15.3 °C 1027.0 hPa Calm   2.6 km/h 99% 0.0 mm 0 W/m2
02:08 15.4 °C 15.3 °C 1026.6 hPa Calm     99% 0.0 mm 0 W/m2
02:13 15.5 °C 15.3 °C 1027.0 hPa Calm   2.6 km/h 99% 0.0 mm 0 W/m2
02:18 15.3 °C 15.2 °C 1027.0 hPa NNW 1.1 km/h 2.6 km/h 99% 0.0 mm 0 W/m2
02:23 15.3 °C 15.2 °C 1026.6 hPa Calm   2.6 km/h 99% 0.0 mm 0 W/m2
02:28 15.2 °C 15.1 °C 1026.6 hPa Calm   2.6 km/h 99% 0.0 mm 0 W/m2
02:33 14.8 °C 14.7 °C 1026.6 hPa NNW 1.1 km/h 2.6 km/h 99% 0.0 mm 0 W/m2
02:38 15.1 °C 14.9 °C 1027.0 hPa NW 1.1 km/h 2.6 km/h 99% 0.0 mm 0 W/m2
02:44 15.0 °C 14.8 °C 1026.6 hPa Calm   2.6 km/h 99% 0.0 mm 0 W/m2
02:48 14.9 °C 14.8 °C 1026.6 hPa NW 1.1 km/h 2.6 km/h 99% 0.0 mm 0 W/m2
02:53 14.5 °C 14.3 °C 1026.6 hPa NW 2.6 km/h 3.5 km/h 99% 0.0 mm 0 W/m2
02:58 14.8 °C 14.7 °C 1026.6 hPa NW 1.1 km/h 3.5 km/h 99% 0.0 mm 0 W/m2
03:03 14.8 °C 14.7 °C 1026.6 hPa NW 2.6 km/h 5.0 km/h 99% 0.0 mm 0 W/m2
03:08 14.8 °C 14.7 °C 1026.6 hPa NW 3.5 km/h 5.0 km/h 99% 0.0 mm 0 W/m2
03:13 14.6 °C 14.4 °C 1026.6 hPa NW 3.5 km/h 5.0 km/h 99% 0.0 mm 0 W/m2
03:18 14.8 °C 14.7 °C 1026.6 hPa NW 3.5 km/h 6.1 km/h 99% 0.0 mm 0 W/m2
03:23 14.7 °C 14.6 °C 1026.6 hPa NW 3.5 km/h 6.1 km/h 99% 0.0 mm 0 W/m2
03:28 14.7 °C 14.6 °C 1026.6 hPa NW 2.6 km/h 6.1 km/h 99% 0.0 mm 0 W/m2
03:33 14.7 °C 14.6 °C 1026.6 hPa NNW 2.6 km/h 6.1 km/h 99% 0.0 mm 0 W/m2
03:38 14.6 °C 14.4 °C 1026.6 hPa NW 2.6 km/h 6.1 km/h 99% 0.0 mm 0 W/m2
03:43 14.6 °C 14.4 °C 1026.6 hPa NNW 1.1 km/h 6.1 km/h 99% 0.0 mm 0 W/m2
03:48 14.6 °C 14.4 °C 1026.6 hPa NNW 5.0 km/h 7.2 km/h 99% 0.0 mm 0 W/m2
03:53 14.6 °C 14.4 °C 1026.3 hPa NNW 2.6 km/h 8.7 km/h 99% 0.0 mm 0 W/m2
03:58 14.9 °C 14.8 °C 1026.3 hPa North 5.0 km/h 8.7 km/h 99% 0.0 mm 0 W/m2
04:03 14.5 °C 14.3 °C 1026.6 hPa North 2.6 km/h 7.2 km/h 99% 0.0 mm 0 W/m2
04:08 14.5 °C 14.3 °C 1026.6 hPa NNW 1.1 km/h 6.1 km/h 99% 0.0 mm 0 W/m2
04:13 14.9 °C 14.8 °C 1026.6 hPa NNW 5.0 km/h 8.7 km/h 99% 0.0 mm 0 W/m2
04:18 14.5 °C 14.3 °C 1026.3 hPa NNW 2.6 km/h 8.7 km/h 99% 0.0 mm 0 W/m2
04:23 14.6 °C 14.4 °C 1026.6 hPa NNW 1.1 km/h 6.1 km/h 99% 0.0 mm 0 W/m2
04:29 14.6 °C 14.4 °C 1026.6 hPa NNW 2.6 km/h 6.1 km/h 99% 0.0 mm 0 W/m2
04:35 14.6 °C 14.4 °C 1026.3 hPa North 2.6 km/h 6.1 km/h 99% 0.0 mm 0 W/m2
04:40 14.6 °C 14.4 °C 1026.3 hPa North 3.5 km/h 6.1 km/h 99% 0.0 mm 0 W/m2
04:45 14.6 °C 14.4 °C 1026.3 hPa North 3.5 km/h 6.1 km/h 99% 0.0 mm 0 W/m2
04:50 14.3 °C 14.2 °C 1026.3 hPa NNW 2.6 km/h 6.1 km/h 99% 0.0 mm 0 W/m2
04:55 14.5 °C 14.3 °C 1026.3 hPa NNW 2.6 km/h 5.0 km/h 99% 0.0 mm 0 W/m2
05:00 14.5 °C 14.3 °C 1026.3 hPa Calm   5.0 km/h 99% 0.0 mm 0 W/m2
05:05 14.5 °C 14.3 °C 1026.6 hPa North 2.6 km/h 7.2 km/h 99% 0.0 mm 0 W/m2
05:10 14.9 °C 14.8 °C 1026.6 hPa Calm   7.2 km/h 99% 0.0 mm 0 W/m2
05:15 14.6 °C 14.4 °C 1026.6 hPa North 3.5 km/h 7.2 km/h 99% 0.0 mm 0 W/m2
05:20 14.7 °C 14.6 °C 1026.6 hPa North 3.5 km/h 7.2 km/h 99% 0.0 mm 0 W/m2
05:25 14.7 °C 14.6 °C 1026.6 hPa NNW 2.6 km/h 7.2 km/h 99% 0.0 mm 0 W/m2
05:30 14.7 °C 14.6 °C 1026.6 hPa NNW 3.5 km/h 7.2 km/h 99% 0.0 mm 0 W/m2
05:35 14.7 °C 14.6 °C 1026.6 hPa NNW 3.5 km/h 7.2 km/h 99% 0.0 mm 0 W/m2
05:40 14.7 °C 14.6 °C 1026.6 hPa NNW 6.1 km/h 7.2 km/h 99% 0.0 mm 0 W/m2
05:45 14.7 °C 14.6 °C 1026.6 hPa NNW 1.1 km/h 7.2 km/h 99% 0.0 mm 0 W/m2
05:47 14.8 °C 14.7 °C 1027.0 hPa NNW 5.0 km/h 8.7 km/h 99% 0.0 mm 0 W/m2
05:52 14.8 °C 14.7 °C 1027.0 hPa NNW 6.1 km/h 9.7 km/h 99% 0.0 mm 2 W/m2
05:57 15.0 °C 14.8 °C 1027.0 hPa NNW 7.2 km/h 11.1 km/h 99% 0.0 mm 3 W/m2
06:02 14.7 °C 14.6 °C 1027.0 hPa NNW 7.2 km/h 12.2 km/h 99% 0.0 mm 4 W/m2
06:07 14.7 °C 14.6 °C 1027.0 hPa NNW 5.0 km/h 12.2 km/h 99% 0.0 mm 5 W/m2
06:12 14.8 °C 14.7 °C 1027.0 hPa NNW 2.6 km/h 12.2 km/h 99% 0.0 mm 7 W/m2
06:17 15.1 °C 14.9 °C 1027.0 hPa NNW 2.6 km/h 11.1 km/h 99% 0.0 mm 10 W/m2
06:22 14.9 °C 14.8 °C 1027.0 hPa North 2.6 km/h 6.1 km/h 99% 0.0 mm 17 W/m2
06:27 14.9 °C 14.8 °C 1027.3 hPa NNW 3.5 km/h 7.2 km/h 99% 0.0 mm 20 W/m2
06:32 14.9 °C 14.8 °C 1027.3 hPa NW 3.5 km/h 7.2 km/h 99% 0.0 mm 24 W/m2
06:52 15.0 °C 14.8 °C 1027.3 hPa NNW 5.0 km/h 11.1 km/h 99% 0.0 mm 27 W/m2
06:57 15.1 °C 14.9 °C 1027.3 hPa NNW 6.1 km/h 11.1 km/h 99% 0.0 mm 26 W/m2
07:02 14.9 °C 14.8 °C 1027.7 hPa NNW 3.5 km/h 11.1 km/h 99% 0.0 mm 25 W/m2
07:07 14.9 °C 14.8 °C 1027.7 hPa NNW 6.1 km/h 9.7 km/h 99% 0.0 mm 27 W/m2
07:12 14.8 °C 14.7 °C 1027.7 hPa NNW 6.1 km/h 9.7 km/h 99% 0.0 mm 29 W/m2
07:17 14.8 °C 14.7 °C 1027.7 hPa NNW 6.1 km/h 11.1 km/h 99% 0.0 mm 32 W/m2
07:22 14.9 °C 14.8 °C 1027.7 hPa NNW 2.6 km/h 11.1 km/h 99% 0.0 mm 35 W/m2
07:27 14.9 °C 14.8 °C 1027.7 hPa NNW 5.0 km/h 9.7 km/h 99% 0.0 mm 41 W/m2
07:32 14.9 °C 14.8 °C 1027.7 hPa NW 6.1 km/h 9.7 km/h 99% 0.0 mm 51 W/m2
07:37 14.8 °C 14.7 °C 1027.7 hPa NNW 6.1 km/h 11.1 km/h 99% 0.0 mm 64 W/m2
07:42 14.9 °C 14.8 °C 1027.7 hPa NNW 8.7 km/h 11.1 km/h 99% 0.0 mm 61 W/m2
07:47 14.9 °C 14.8 °C 1027.7 hPa NNW 6.1 km/h 11.1 km/h 99% 0.0 mm 73 W/m2
07:52 15.0 °C 14.8 °C 1027.7 hPa NNW 5.0 km/h 12.2 km/h 99% 0.0 mm 88 W/m2
07:57 15.1 °C 14.9 °C 1028.0 hPa NNW 3.5 km/h 12.2 km/h 99% 0.0 mm 106 W/m2
08:02 15.3 °C 15.2 °C 1027.7 hPa North 5.0 km/h 11.1 km/h 99% 0.0 mm 127 W/m2
08:07 15.3 °C 15.2 °C 1027.7 hPa NNW 6.1 km/h 12.2 km/h 99% 0.0 mm 150 W/m2
08:12 15.5 °C 15.3 °C 1028.0 hPa NW 7.2 km/h 12.2 km/h 99% 0.0 mm 167 W/m2
08:17 15.7 °C 15.6 °C 1028.0 hPa NW 6.1 km/h 12.2 km/h 99% 0.0 mm 187 W/m2
08:22 16.0 °C 15.7 °C 1028.0 hPa NW 5.0 km/h 12.2 km/h 98% 0.0 mm 219 W/m2
08:27 16.2 °C 15.9 °C 1028.0 hPa NW 7.2 km/h 11.1 km/h 98% 0.0 mm 256 W/m2
08:32 16.4 °C 16.1 °C 1028.0 hPa NNW 7.2 km/h 13.4 km/h 98% 0.0 mm 244 W/m2
08:37 16.4 °C 16.1 °C 1027.7 hPa NNW 9.7 km/h 13.4 km/h 98% 0.0 mm 221 W/m2
08:42 16.9 °C 16.6 °C 1028.0 hPa NW 5.0 km/h 12.2 km/h 98% 0.0 mm 269 W/m2
08:47 17.8 °C 17.3 °C 1028.0 hPa NNW 6.1 km/h 12.2 km/h 97% 0.0 mm 476 W/m2
08:52 18.4 °C 17.8 °C 1028.0 hPa North 5.0 km/h 9.7 km/h 96% 0.0 mm 475 W/m2
08:57 19.0 °C 17.3 °C 1028.0 hPa NNW 7.2 km/h 11.1 km/h 90% 0.0 mm 505 W/m2
09:02 19.1 °C 16.6 °C 1028.0 hPa NW 7.2 km/h 11.1 km/h 85% 0.0 mm 504 W/m2
09:07 19.4 °C 16.8 °C 1028.0 hPa NW 5.0 km/h 11.1 km/h 85% 0.0 mm 507 W/m2
09:12 19.8 °C 17.1 °C 1028.0 hPa NW 2.6 km/h 11.1 km/h 84% 0.0 mm 449 W/m2
09:17 20.4 °C 17.1 °C 1028.0 hPa NW 2.6 km/h 11.1 km/h 81% 0.0 mm 414 W/m2
09:22 20.4 °C 16.4 °C 1027.7 hPa NW 5.0 km/h 8.7 km/h 78% 0.0 mm 342 W/m2
09:27 20.4 °C 16.4 °C 1027.7 hPa Calm   8.7 km/h 78% 0.0 mm 372 W/m2
09:32 21.5 °C 17.3 °C 1027.7 hPa NNW 1.1 km/h 8.7 km/h 77% 0.0 mm 481 W/m2
09:37 21.4 °C 16.6 °C 1027.7 hPa Calm   6.1 km/h 74% 0.0 mm 371 W/m2
09:43 22.0 °C 16.9 °C 1027.7 hPa Calm   6.1 km/h 73% 0.0 mm 319 W/m2
09:48 21.8 °C 16.6 °C 1028.0 hPa Calm   5.0 km/h 72% 0.0 mm 300 W/m2
09:53 21.3 °C 16.1 °C 1027.7 hPa Calm   6.1 km/h 72% 0.0 mm 291 W/m2
09:58 21.3 °C 16.1 °C 1028.0 hPa ENE 2.6 km/h 7.2 km/h 72% 0.0 mm 259 W/m2
10:03 21.0 °C 15.8 °C 1027.7 hPa Calm   7.2 km/h 72% 0.0 mm 246 W/m2
10:08 21.0 °C 15.8 °C 1027.7 hPa Calm   7.2 km/h 72% 0.0 mm 260 W/m2
10:13 21.1 °C 15.9 °C 1027.7 hPa SSE 1.1 km/h 6.1 km/h 72% 0.0 mm 568 W/m2
10:18 21.5 °C 16.3 °C 1027.7 hPa South 3.5 km/h 7.2 km/h 72% 0.0 mm 315 W/m2
10:23 21.2 °C 16.2 °C 1028.0 hPa Calm   7.2 km/h 73% 0.0 mm 397 W/m2
10:28 21.6 °C 16.6 °C 1027.7 hPa South 5.0 km/h 9.7 km/h 73% 0.0 mm 346 W/m2
10:34 21.2 °C 16.2 °C 1027.7 hPa South 7.2 km/h 9.7 km/h 73% 0.0 mm 334 W/m2
10:40 20.8 °C 16.0 °C 1027.7 hPa South 5.0 km/h 9.7 km/h 74% 0.0 mm 393 W/m2
10:45 21.2 °C 16.2 °C 1027.7 hPa South 2.6 km/h 8.7 km/h 73% 0.0 mm 511 W/m2
10:50 22.2 °C 16.7 °C 1027.7 hPa SSE 1.1 km/h 7.2 km/h 71% 0.0 mm 474 W/m2
10:55 22.5 °C 16.1 °C 1027.7 hPa Calm   8.7 km/h 67% 0.0 mm 544 W/m2
11:00 22.2 °C 16.3 °C 1027.7 hPa South 8.7 km/h 12.2 km/h 69% 0.0 mm 512 W/m2
11:05 21.6 °C 16.1 °C 1027.7 hPa South 3.5 km/h 12.2 km/h 71% 0.0 mm 522 W/m2
11:10 21.6 °C 16.3 °C 1027.7 hPa South 9.7 km/h 12.2 km/h 72% 0.0 mm 685 W/m2
11:15 21.4 °C 16.4 °C 1027.7 hPa South 5.0 km/h 12.2 km/h 73% 0.0 mm 794 W/m2
11:20 21.6 °C 16.3 °C 1027.7 hPa South 3.5 km/h 12.2 km/h 72% 0.0 mm 794 W/m2
11:25 21.8 °C 16.6 °C 1027.7 hPa South 3.5 km/h 11.1 km/h 72% 0.0 mm 804 W/m2
11:30 21.7 °C 16.2 °C 1027.7 hPa South 8.7 km/h 13.4 km/h 71% 0.0 mm 801 W/m2
11:35 21.7 °C 16.7 °C 1027.7 hPa South 8.7 km/h 13.4 km/h 73% 0.0 mm 796 W/m2
11:40 21.4 °C 16.2 °C 1027.7 hPa South 7.2 km/h 13.4 km/h 72% 0.0 mm 804 W/m2
11:45 21.3 °C 16.5 °C 1027.7 hPa South 9.7 km/h 13.4 km/h 74% 0.0 mm 808 W/m2
11:50 21.3 °C 16.7 °C 1027.7 hPa South 6.1 km/h 13.4 km/h 75% 0.0 mm 776 W/m2
11:55 21.5 °C 17.1 °C 1027.7 hPa SSW 6.1 km/h 14.8 km/h 76% 0.0 mm 814 W/m2
12:00 21.6 °C 16.8 °C 1027.7 hPa SSW 6.1 km/h 14.8 km/h 74% 0.0 mm 814 W/m2
12:05 21.6 °C 16.8 °C 1027.7 hPa South 8.7 km/h 13.4 km/h 74% 0.0 mm 819 W/m2
12:10 21.3 °C 16.5 °C 1027.3 hPa South 5.0 km/h 13.4 km/h 74% 0.0 mm 824 W/m2
12:15 21.5 °C 16.7 °C 1027.3 hPa South 9.7 km/h 14.8 km/h 74% 0.0 mm 828 W/m2
12:20 21.2 °C 16.2 °C 1027.3 hPa South 7.2 km/h 14.8 km/h 73% 0.0 mm 829 W/m2
12:25 21.3 °C 16.5 °C 1027.3 hPa South 11.1 km/h 14.8 km/h 74% 0.0 mm 828 W/m2
12:30 21.7 °C 17.1 °C 1027.3 hPa South 9.7 km/h 14.8 km/h 75% 0.0 mm 825 W/m2
12:35 21.5 °C 16.4 °C 1027.0 hPa SSW 6.1 km/h 14.8 km/h 73% 0.0 mm 826 W/m2
12:40 21.8 °C 16.8 °C 1027.3 hPa SSW 7.2 km/h 13.4 km/h 73% 0.0 mm 822 W/m2
12:45 21.5 °C 16.3 °C 1027.3 hPa SSW 8.7 km/h 15.8 km/h 72% 0.0 mm 816 W/m2
12:50 21.7 °C 16.7 °C 1027.0 hPa SW 9.7 km/h 15.8 km/h 73% 0.0 mm 810 W/m2
12:55 21.3 °C 16.3 °C 1027.0 hPa SSW 8.7 km/h 14.8 km/h 73% 0.0 mm 807 W/m2
13:05 21.3 °C 16.5 °C 1027.0 hPa South 8.7 km/h 15.8 km/h 74% 0.0 mm 805 W/m2
13:10 21.6 °C 16.6 °C 1026.6 hPa South 7.2 km/h 15.8 km/h 73% 0.0 mm 756 W/m2
13:15 21.8 °C 16.6 °C 1026.6 hPa South 7.2 km/h 14.8 km/h 72% 0.0 mm 671 W/m2
13:21 21.6 °C 16.3 °C 1026.6 hPa SSE 2.6 km/h 14.8 km/h 72% 0.0 mm 763 W/m2
13:26 21.6 °C 16.3 °C 1026.6 hPa SSE 1.1 km/h 17.2 km/h 72% 0.0 mm 781 W/m2
13:31 21.5 °C 16.4 °C 1026.6 hPa SSE 5.0 km/h 17.2 km/h 73% 0.0 mm 775 W/m2
13:36 21.8 °C 16.8 °C 1026.6 hPa SSE 3.5 km/h 15.8 km/h 73% 0.0 mm 770 W/m2
13:41 22.0 °C 16.5 °C 1026.6 hPa SSE 7.2 km/h 14.8 km/h 71% 0.0 mm 762 W/m2
13:46 21.9 °C 16.8 °C 1026.6 hPa SE 6.1 km/h 14.8 km/h 73% 0.0 mm 759 W/m2
13:51 21.8 °C 16.8 °C 1026.3 hPa SE 1.1 km/h 15.8 km/h 73% 0.0 mm 748 W/m2
13:56 21.5 °C 16.4 °C 1026.3 hPa ESE 7.2 km/h 15.8 km/h 73% 0.0 mm 741 W/m2
14:01 21.6 °C 17.0 °C 1026.3 hPa ESE 5.0 km/h 15.8 km/h 75% 0.0 mm 732 W/m2
14:06 21.7 °C 17.3 °C 1026.3 hPa SE 6.1 km/h 17.2 km/h 76% 0.0 mm 730 W/m2
14:11 21.4 °C 17.0 °C 1026.3 hPa SE 1.1 km/h 17.2 km/h 76% 0.0 mm 721 W/m2
14:16 21.7 °C 17.3 °C 1026.3 hPa SE 12.2 km/h 17.2 km/h 76% 0.0 mm 720 W/m2
14:21 21.5 °C 17.1 °C 1026.3 hPa SSE 3.5 km/h 18.3 km/h 76% 0.0 mm 710 W/m2
14:26 21.5 °C 16.9 °C 1026.0 hPa SE 7.2 km/h 18.3 km/h 75% 0.0 mm 704 W/m2
14:31 21.5 °C 17.1 °C 1026.0 hPa SE 9.7 km/h 19.5 km/h 76% 0.0 mm 690 W/m2
14:36 21.5 °C 17.5 °C 1026.0 hPa SE 5.0 km/h 19.5 km/h 78% 0.0 mm 689 W/m2
14:41 22.1 °C 17.7 °C 1025.6 hPa ESE 13.4 km/h 19.5 km/h 76% 0.0 mm 681 W/m2
14:46 21.8 °C 17.6 °C 1025.6 hPa SE 8.7 km/h 19.5 km/h 77% 0.0 mm 670 W/m2
14:51 21.5 °C 17.5 °C 1026.0 hPa SE 6.1 km/h 19.5 km/h 78% 0.0 mm 663 W/m2
14:56 21.6 °C 17.4 °C 1025.6 hPa SE 5.0 km/h 14.8 km/h 77% 0.0 mm 653 W/m2
15:01 21.6 °C 17.6 °C 1026.0 hPa SE 6.1 km/h 14.8 km/h 78% 0.0 mm 645 W/m2
15:06 22.0 °C 17.8 °C 1025.6 hPa SE 3.5 km/h 14.8 km/h 77% 0.0 mm 636 W/m2
15:11 22.3 °C 17.7 °C 1025.6 hPa SE 6.1 km/h 14.8 km/h 75% 0.0 mm 629 W/m2
15:16 22.1 °C 17.3 °C 1025.6 hPa SSE 6.1 km/h 18.3 km/h 74% 0.0 mm 622 W/m2
15:21 22.2 °C 17.2 °C 1025.6 hPa SSE 5.0 km/h 18.3 km/h 73% 0.0 mm 605 W/m2
15:26 22.2 °C 17.4 °C 1025.3 hPa SE 6.1 km/h 14.8 km/h 74% 0.0 mm 608 W/m2
15:31 22.1 °C 17.1 °C 1025.3 hPa SE 5.0 km/h 14.8 km/h 73% 0.0 mm 597 W/m2
15:36 22.4 °C 17.1 °C 1025.3 hPa SE 9.7 km/h 14.8 km/h 72% 0.0 mm 591 W/m2
15:41 22.5 °C 17.2 °C 1024.9 hPa SSE 6.1 km/h 15.8 km/h 72% 0.0 mm 580 W/m2
15:46 22.8 °C 17.1 °C 1024.9 hPa SSE 6.1 km/h 15.8 km/h 70% 0.0 mm 569 W/m2
15:51 23.2 °C 16.8 °C 1024.9 hPa SE 5.0 km/h 14.8 km/h 67% 0.0 mm 563 W/m2
15:56 23.4 °C 16.4 °C 1024.9 hPa SE 7.2 km/h 14.8 km/h 65% 0.0 mm 556 W/m2
16:01 23.4 °C 16.4 °C 1024.9 hPa SSE 1.1 km/h 14.8 km/h 65% 0.0 mm 545 W/m2
16:06 23.8 °C 16.1 °C 1024.6 hPa SE 7.2 km/h 14.8 km/h 62% 0.0 mm 536 W/m2
16:11 23.6 °C 15.9 °C 1024.6 hPa SE 5.0 km/h 13.4 km/h 62% 0.0 mm 522 W/m2
16:17 23.7 °C 16.0 °C 1024.6 hPa SE 5.0 km/h 15.8 km/h 62% 0.0 mm 512 W/m2
16:22 24.0 °C 15.5 °C 1024.6 hPa SSE 6.1 km/h 15.8 km/h 59% 0.0 mm 498 W/m2
16:27 23.9 °C 15.7 °C 1024.6 hPa SE 6.1 km/h 15.8 km/h 60% 0.0 mm 487 W/m2
16:32 24.3 °C 15.5 °C 1024.6 hPa SE 3.5 km/h 12.2 km/h 58% 0.0 mm 477 W/m2
16:37 24.5 °C 15.7 °C 1024.6 hPa Calm   15.8 km/h 58% 0.0 mm 465 W/m2
16:42 24.4 °C 15.3 °C 1024.6 hPa SSE 6.1 km/h 15.8 km/h 57% 0.0 mm 455 W/m2
16:47 24.8 °C 15.7 °C 1024.6 hPa SE 5.0 km/h 14.8 km/h 57% 0.0 mm 441 W/m2
16:52 24.8 °C 15.4 °C 1024.6 hPa ESE 3.5 km/h 13.4 km/h 56% 0.0 mm 431 W/m2
16:57 24.5 °C 15.2 °C 1024.3 hPa SE 2.6 km/h 13.4 km/h 56% 0.0 mm 413 W/m2
17:02 24.8 °C 15.4 °C 1024.3 hPa SE 5.0 km/h 12.2 km/h 56% 0.0 mm 403 W/m2
17:07 24.8 °C 14.9 °C 1024.3 hPa SE 6.1 km/h 15.8 km/h 54% 0.0 mm 391 W/m2
17:12 24.8 °C 15.4 °C 1024.3 hPa SE 3.5 km/h 15.8 km/h 56% 0.0 mm 383 W/m2
17:17 24.7 °C 15.6 °C 1024.3 hPa SE 7.2 km/h 14.8 km/h 57% 0.0 mm 364 W/m2
17:22 24.4 °C 15.3 °C 1024.3 hPa SE 3.5 km/h 14.8 km/h 57% 0.0 mm 358 W/m2
17:27 24.4 °C 15.1 °C 1024.3 hPa SE 2.6 km/h 12.2 km/h 56% 0.0 mm 332 W/m2
17:32 24.4 °C 15.3 °C 1024.3 hPa ESE 2.6 km/h 12.2 km/h 57% 0.0 mm 327 W/m2
17:37 24.8 °C 15.2 °C 1024.3 hPa ESE 2.6 km/h 12.2 km/h 55% 0.0 mm 297 W/m2
17:42 24.8 °C 15.2 °C 1024.3 hPa ESE 3.5 km/h 11.1 km/h 55% 0.0 mm 276 W/m2
17:46 24.8 °C 15.2 °C 1024.3 hPa East 3.5 km/h 9.7 km/h 55% 0.0 mm 269 W/m2
17:51 24.4 °C 15.1 °C 1024.3 hPa East 1.1 km/h 9.7 km/h 56% 0.0 mm 253 W/m2
17:56 24.4 °C 15.3 °C 1024.3 hPa SE 7.2 km/h 12.2 km/h 57% 0.0 mm 267 W/m2
18:01 24.4 °C 15.9 °C 1024.3 hPa SSE 2.6 km/h 12.2 km/h 59% 0.0 mm 260 W/m2
18:06 24.4 °C 15.6 °C 1024.6 hPa SSE 3.5 km/h 12.2 km/h 58% 0.0 mm 187 W/m2
18:11 24.0 °C 15.8 °C 1024.6 hPa SSE 2.6 km/h 12.2 km/h 60% 0.0 mm 176 W/m2
18:16 23.8 °C 16.3 °C 1024.6 hPa SSE 6.1 km/h 12.2 km/h 63% 0.0 mm 121 W/m2
18:21 22.9 °C 16.0 °C 1024.6 hPa SSE 1.1 km/h 9.7 km/h 65% 0.0 mm 76 W/m2
18:26 22.0 °C 15.8 °C 1024.6 hPa South 1.1 km/h 8.7 km/h 68% 0.0 mm 59 W/m2
18:31 21.3 °C 16.1 °C 1024.6 hPa South 1.1 km/h 8.7 km/h 72% 0.0 mm 56 W/m2
18:36 20.7 °C 16.1 °C 1024.9 hPa South 6.1 km/h 9.7 km/h 75% 0.0 mm 59 W/m2
18:41 20.5 °C 16.3 °C 1024.9 hPa South 8.7 km/h 15.8 km/h 77% 0.0 mm 52 W/m2
18:46 20.4 °C 15.4 °C 1024.9 hPa South 3.5 km/h 15.8 km/h 73% 0.0 mm 47 W/m2
18:51 20.3 °C 15.9 °C 1024.9 hPa SSW 1.1 km/h 12.2 km/h 76% 0.0 mm 44 W/m2
18:56 20.0 °C 15.8 °C 1024.9 hPa SW 2.6 km/h 8.7 km/h 77% 0.0 mm 42 W/m2
19:01 20.0 °C 16.1 °C 1024.9 hPa SW 1.1 km/h 8.7 km/h 78% 0.0 mm 41 W/m2
19:06 19.7 °C 16.2 °C 1024.9 hPa SW 2.6 km/h 6.1 km/h 80% 0.0 mm 41 W/m2
19:11 19.6 °C 16.1 °C 1025.3 hPa WSW 2.6 km/h 5.0 km/h 80% 0.0 mm 40 W/m2
19:16 19.4 °C 16.1 °C 1025.3 hPa WSW 2.6 km/h 7.2 km/h 81% 0.0 mm 40 W/m2
19:21 19.1 °C 15.8 °C 1025.3 hPa WSW 3.5 km/h 7.2 km/h 81% 0.0 mm 39 W/m2
19:26 19.2 °C 16.1 °C 1025.3 hPa WSW 3.5 km/h 8.7 km/h 82% 0.0 mm 36 W/m2
19:31 19.0 °C 16.1 °C 1025.3 hPa WSW 5.0 km/h 11.1 km/h 83% 0.0 mm 31 W/m2
19:36 18.9 °C 16.3 °C 1025.6 hPa West 3.5 km/h 11.1 km/h 85% 0.0 mm 27 W/m2
19:41 18.9 °C 16.5 °C 1025.6 hPa WSW 6.1 km/h 12.2 km/h 86% 0.0 mm 23 W/m2
19:46 18.7 °C 16.3 °C 1026.0 hPa SW 8.7 km/h 12.2 km/h 86% 0.0 mm 20 W/m2
19:51 18.6 °C 16.2 °C 1025.6 hPa WSW 2.6 km/h 12.2 km/h 86% 0.0 mm 17 W/m2
19:56 18.6 °C 16.4 °C 1026.0 hPa West 2.6 km/h 12.2 km/h 87% 0.0 mm 11 W/m2
20:01 18.6 °C 16.4 °C 1025.6 hPa West 3.5 km/h 8.7 km/h 87% 0.0 mm 7 W/m2
20:06 18.5 °C 16.3 °C 1026.0 hPa Calm   6.1 km/h 87% 0.0 mm 4 W/m2
20:11 18.4 °C 16.2 °C 1026.0 hPa Calm   6.1 km/h 87% 0.0 mm 1 W/m2
20:16 18.3 °C 16.1 °C 1026.0 hPa West 3.5 km/h 7.2 km/h 87% 0.0 mm 0 W/m2
20:21 18.6 °C 16.4 °C 1026.0 hPa Calm   7.2 km/h 87% 0.0 mm 0 W/m2
20:26 18.1 °C 16.1 °C 1026.0 hPa Calm   7.2 km/h 88% 0.0 mm 0 W/m2
20:31 18.1 °C 16.1 °C 1026.0 hPa West 1.1 km/h 6.1 km/h 88% 0.0 mm 0 W/m2
20:36 18.0 °C 16.2 °C 1026.0 hPa Calm   9.7 km/h 89% 0.0 mm 0 W/m2
20:41 17.7 °C 15.7 °C 1026.0 hPa Calm   9.7 km/h 88% 0.0 mm 0 W/m2
20:46 17.8 °C 16.0 °C 1026.0 hPa Calm   3.5 km/h 89% 0.0 mm 0 W/m2
20:51 17.7 °C 15.9 °C 1026.0 hPa Calm   5.0 km/h 89% 0.0 mm 0 W/m2
20:56 17.6 °C 15.9 °C 1026.3 hPa WNW 1.1 km/h 5.0 km/h 90% 0.0 mm 0 W/m2
21:01 17.3 °C 15.7 °C 1026.3 hPa Calm   3.5 km/h 90% 0.0 mm 0 W/m2
21:06 17.4 °C 15.8 °C 1026.3 hPa Calm   3.5 km/h 90% 0.0 mm 0 W/m2
21:11 17.3 °C 15.7 °C 1026.3 hPa Calm   1.1 km/h 90% 0.0 mm 0 W/m2
21:28 17.3 °C 15.8 °C 1026.0 hPa Calm   2.6 km/h 91% 0.0 mm 0 W/m2
21:33 17.0 °C 15.6 °C 1026.0 hPa Calm   1.1 km/h 91% 0.0 mm 0 W/m2
21:38 17.1 °C 15.8 °C 1026.0 hPa Calm     92% 0.0 mm 0 W/m2
21:43 17.1 °C 15.8 °C 1026.0 hPa West 1.1 km/h 3.5 km/h 92% 0.0 mm 0 W/m2
21:48 17.0 °C 15.7 °C 1026.0 hPa Calm   3.5 km/h 92% 0.0 mm 0 W/m2
21:53 17.1 °C 15.8 °C 1026.0 hPa Calm   3.5 km/h 92% 0.0 mm 0 W/m2
21:58 16.9 °C 15.8 °C 1026.0 hPa Calm     93% 0.0 mm 0 W/m2
22:03 16.9 °C 15.9 °C 1026.3 hPa North 1.1 km/h 3.5 km/h 94% 0.0 mm 0 W/m2
22:08 17.0 °C 15.9 °C 1026.3 hPa North 5.0 km/h 7.2 km/h 93% 0.0 mm 0 W/m2
22:13 16.7 °C 15.9 °C 1026.3 hPa North 7.2 km/h 15.8 km/h 95% 0.0 mm 0 W/m2
22:18 16.9 °C 15.9 °C 1026.6 hPa NNW 7.2 km/h 15.8 km/h 94% 0.0 mm 0 W/m2
22:23 16.7 °C 15.7 °C 1026.6 hPa NNW 3.5 km/h 14.8 km/h 94% 0.0 mm 0 W/m2
22:28 16.7 °C 15.7 °C 1026.3 hPa NNW 1.1 km/h 9.7 km/h 94% 0.0 mm 0 W/m2
22:33 16.4 °C 15.3 °C 1026.3 hPa Calm   6.1 km/h 93% 0.0 mm 0 W/m2
22:38 16.6 °C 15.5 °C 1026.3 hPa Calm   3.5 km/h 93% 0.0 mm 0 W/m2
22:43 16.5 °C 15.6 °C 1026.3 hPa NW 1.1 km/h 3.5 km/h 94% 0.0 mm 0 W/m2
22:48 16.4 °C 15.4 °C 1026.3 hPa Calm   3.5 km/h 94% 0.0 mm 0 W/m2
22:53 16.3 °C 15.3 °C 1026.3 hPa Calm   3.5 km/h 94% 0.0 mm 0 W/m2
22:58 16.2 °C 15.2 °C 1026.0 hPa Calm   1.1 km/h 94% 0.0 mm 0 W/m2
23:03 16.2 °C 15.2 °C 1026.3 hPa Calm   1.1 km/h 94% 0.0 mm 0 W/m2
23:08 16.0 °C 15.1 °C 1026.3 hPa Calm     94% 0.0 mm 0 W/m2
23:13 15.9 °C 15.1 °C 1026.0 hPa Calm     95% 0.0 mm 0 W/m2
23:18 15.9 °C 15.1 °C 1026.0 hPa Calm     95% 0.0 mm 0 W/m2
23:23 15.8 °C 15.0 °C 1026.0 hPa Calm     95% 0.0 mm 0 W/m2
23:28 15.7 °C 14.9 °C 1026.0 hPa Calm     95% 0.0 mm 0 W/m2
23:33 15.9 °C 15.1 °C 1026.0 hPa Calm     95% 0.0 mm 0 W/m2
23:38 15.7 °C 15.1 °C 1026.0 hPa Calm     96% 0.0 mm 0 W/m2
23:44 15.7 °C 15.1 °C 1026.0 hPa Calm     96% 0.0 mm 0 W/m2
23:50 15.6 °C 15.0 °C 1026.0 hPa Calm     96% 0.0 mm 0 W/m2
23:54 15.6 °C 15.0 °C 1026.0 hPa Calm     96% 0.0 mm 0 W/m2
Northern Hawkes Bay. New Zealand Historic Data
Compliments of Weather Underground - 2 mb